sensor_id;sensor_type;location;lat;lon;timestamp;P1;durP1;ratioP1;P2;durP2;ratioP2
16310;SDS011;8264;48.510;8.872;2023-02-28T00:01:10;2.47;;;2.05;;
16310;SDS011;8264;48.510;8.872;2023-02-28T00:03:37;3.90;;;2.33;;
16310;SDS011;8264;48.510;8.872;2023-02-28T00:06:04;4.50;;;2.53;;
16310;SDS011;8264;48.510;8.872;2023-02-28T00:08:32;3.20;;;2.35;;
16310;SDS011;8264;48.510;8.872;2023-02-28T00:11:02;2.80;;;2.20;;
16310;SDS011;8264;48.510;8.872;2023-02-28T00:13:28;4.10;;;2.53;;
16310;SDS011;8264;48.510;8.872;2023-02-28T00:15:58;2.70;;;2.08;;
16310;SDS011;8264;48.510;8.872;2023-02-28T00:18:26;3.78;;;2.33;;
16310;SDS011;8264;48.510;8.872;2023-02-28T00:20:52;3.40;;;2.55;;
16310;SDS011;8264;48.510;8.872;2023-02-28T00:23:19;3.03;;;2.28;;
16310;SDS011;8264;48.510;8.872;2023-02-28T00:25:45;3.10;;;2.00;;
16310;SDS011;8264;48.510;8.872;2023-02-28T00:28:13;2.83;;;2.10;;
16310;SDS011;8264;48.510;8.872;2023-02-28T00:30:40;3.17;;;2.08;;
16310;SDS011;8264;48.510;8.872;2023-02-28T00:33:06;2.97;;;2.28;;
16310;SDS011;8264;48.510;8.872;2023-02-28T00:35:33;2.72;;;1.85;;
16310;SDS011;8264;48.510;8.872;2023-02-28T00:37:59;3.17;;;2.50;;
16310;SDS011;8264;48.510;8.872;2023-02-28T00:40:26;4.60;;;2.40;;
16310;SDS011;8264;48.510;8.872;2023-02-28T00:42:52;2.95;;;2.05;;
16310;SDS011;8264;48.510;8.872;2023-02-28T00:45:20;3.80;;;2.80;;
16310;SDS011;8264;48.510;8.872;2023-02-28T00:47:46;2.80;;;2.33;;
16310;SDS011;8264;48.510;8.872;2023-02-28T00:50:15;3.42;;;2.00;;
16310;SDS011;8264;48.510;8.872;2023-02-28T00:52:42;2.55;;;2.10;;
16310;SDS011;8264;48.510;8.872;2023-02-28T00:55:09;3.60;;;2.30;;
16310;SDS011;8264;48.510;8.872;2023-02-28T00:57:35;3.35;;;2.78;;
16310;SDS011;8264;48.510;8.872;2023-02-28T01:00:03;2.70;;;1.85;;
16310;SDS011;8264;48.510;8.872;2023-02-28T01:02:31;3.13;;;2.13;;
16310;SDS011;8264;48.510;8.872;2023-02-28T01:04:57;4.35;;;2.50;;
16310;SDS011;8264;48.510;8.872;2023-02-28T01:07:24;3.13;;;2.08;;
16310;SDS011;8264;48.510;8.872;2023-02-28T01:09:51;4.10;;;2.30;;
16310;SDS011;8264;48.510;8.872;2023-02-28T01:12:17;4.50;;;2.65;;
16310;SDS011;8264;48.510;8.872;2023-02-28T01:14:43;2.78;;;2.10;;
16310;SDS011;8264;48.510;8.872;2023-02-28T01:17:10;5.05;;;2.55;;
16310;SDS011;8264;48.510;8.872;2023-02-28T01:19:38;3.17;;;2.33;;
16310;SDS011;8264;48.510;8.872;2023-02-28T01:22:04;3.38;;;2.17;;
16310;SDS011;8264;48.510;8.872;2023-02-28T01:24:32;3.92;;;2.38;;
16310;SDS011;8264;48.510;8.872;2023-02-28T01:26:58;3.40;;;2.40;;
16310;SDS011;8264;48.510;8.872;2023-02-28T01:29:25;3.90;;;2.53;;
16310;SDS011;8264;48.510;8.872;2023-02-28T01:31:51;3.08;;;1.80;;
16310;SDS011;8264;48.510;8.872;2023-02-28T01:34:18;5.05;;;2.50;;
16310;SDS011;8264;48.510;8.872;2023-02-28T01:36:46;3.05;;;2.45;;
16310;SDS011;8264;48.510;8.872;2023-02-28T01:39:13;3.95;;;2.50;;
16310;SDS011;8264;48.510;8.872;2023-02-28T01:41:39;4.95;;;2.35;;
16310;SDS011;8264;48.510;8.872;2023-02-28T01:44:07;2.55;;;2.20;;
16310;SDS011;8264;48.510;8.872;2023-02-28T01:47:11;3.75;;;2.60;;
16310;SDS011;8264;48.510;8.872;2023-02-28T01:49:37;3.88;;;2.40;;
16310;SDS011;8264;48.510;8.872;2023-02-28T01:52:05;3.08;;;1.95;;
16310;SDS011;8264;48.510;8.872;2023-02-28T01:54:33;4.70;;;2.47;;
16310;SDS011;8264;48.510;8.872;2023-02-28T01:57:00;4.30;;;2.50;;
16310;SDS011;8264;48.510;8.872;2023-02-28T01:59:31;2.58;;;2.03;;
16310;SDS011;8264;48.510;8.872;2023-02-28T02:02:01;2.47;;;2.10;;
16310;SDS011;8264;48.510;8.872;2023-02-28T02:04:30;4.22;;;2.60;;
16310;SDS011;8264;48.510;8.872;2023-02-28T02:06:58;2.75;;;2.25;;
16310;SDS011;8264;48.510;8.872;2023-02-28T02:09:27;8.40;;;2.58;;
16310;SDS011;8264;48.510;8.872;2023-02-28T02:11:53;3.75;;;2.05;;
16310;SDS011;8264;48.510;8.872;2023-02-28T02:14:27;4.28;;;2.55;;
16310;SDS011;8264;48.510;8.872;2023-02-28T02:17:04;3.20;;;1.92;;
16310;SDS011;8264;48.510;8.872;2023-02-28T02:19:44;2.33;;;1.95;;
16310;SDS011;8264;48.510;8.872;2023-02-28T02:22:46;3.30;;;2.20;;
16310;SDS011;8264;48.510;8.872;2023-02-28T02:25:27;3.47;;;2.83;;
16310;SDS011;8264;48.510;8.872;2023-02-28T02:27:59;3.70;;;2.40;;
16310;SDS011;8264;48.510;8.872;2023-02-28T02:31:06;4.45;;;2.65;;
16310;SDS011;8264;48.510;8.872;2023-02-28T02:36:39;5.80;;;2.97;;
16310;SDS011;8264;48.510;8.872;2023-02-28T02:39:12;3.47;;;2.63;;
16310;SDS011;8264;48.510;8.872;2023-02-28T02:41:45;3.35;;;2.55;;
16310;SDS011;8264;48.510;8.872;2023-02-28T02:44:14;6.30;;;3.00;;
16310;SDS011;8264;48.510;8.872;2023-02-28T02:46:44;4.38;;;2.88;;
16310;SDS011;8264;48.510;8.872;2023-02-28T02:49:13;6.43;;;3.10;;
16310;SDS011;8264;48.510;8.872;2023-02-28T02:51:43;3.20;;;2.67;;
16310;SDS011;8264;48.510;8.872;2023-02-28T02:54:11;4.72;;;3.00;;
16310;SDS011;8264;48.510;8.872;2023-02-28T02:56:40;5.40;;;2.53;;
16310;SDS011;8264;48.510;8.872;2023-02-28T02:59:09;3.70;;;2.50;;
16310;SDS011;8264;48.510;8.872;2023-02-28T03:01:37;3.03;;;2.53;;
16310;SDS011;8264;48.510;8.872;2023-02-28T03:04:06;8.77;;;3.42;;
16310;SDS011;8264;48.510;8.872;2023-02-28T03:06:36;3.80;;;2.70;;
16310;SDS011;8264;48.510;8.872;2023-02-28T03:09:03;3.55;;;2.40;;
16310;SDS011;8264;48.510;8.872;2023-02-28T03:11:30;4.72;;;3.13;;
16310;SDS011;8264;48.510;8.872;2023-02-28T03:14:07;3.95;;;2.95;;
16310;SDS011;8264;48.510;8.872;2023-02-28T03:16:51;4.82;;;2.92;;
16310;SDS011;8264;48.510;8.872;2023-02-28T03:19:25;3.58;;;2.60;;
16310;SDS011;8264;48.510;8.872;2023-02-28T03:22:01;4.93;;;2.83;;
16310;SDS011;8264;48.510;8.872;2023-02-28T03:24:38;5.70;;;3.05;;
16310;SDS011;8264;48.510;8.872;2023-02-28T03:27:09;7.22;;;2.78;;
16310;SDS011;8264;48.510;8.872;2023-02-28T03:29:41;4.53;;;2.80;;
16310;SDS011;8264;48.510;8.872;2023-02-28T03:32:11;3.90;;;2.60;;
16310;SDS011;8264;48.510;8.872;2023-02-28T03:34:45;4.85;;;2.90;;
16310;SDS011;8264;48.510;8.872;2023-02-28T03:37:14;4.45;;;3.10;;
16310;SDS011;8264;48.510;8.872;2023-02-28T03:39:45;7.40;;;4.00;;
16310;SDS011;8264;48.510;8.872;2023-02-28T03:42:14;6.55;;;3.55;;
16310;SDS011;8264;48.510;8.872;2023-02-28T03:44:43;3.60;;;2.83;;
16310;SDS011;8264;48.510;8.872;2023-02-28T03:47:14;5.07;;;3.03;;
16310;SDS011;8264;48.510;8.872;2023-02-28T03:49:43;7.85;;;3.40;;
16310;SDS011;8264;48.510;8.872;2023-02-28T03:52:12;7.25;;;3.58;;
16310;SDS011;8264;48.510;8.872;2023-02-28T03:54:41;4.38;;;2.70;;
16310;SDS011;8264;48.510;8.872;2023-02-28T03:57:11;5.95;;;3.33;;
16310;SDS011;8264;48.510;8.872;2023-02-28T03:59:43;5.20;;;3.35;;
16310;SDS011;8264;48.510;8.872;2023-02-28T04:02:10;5.38;;;3.33;;
16310;SDS011;8264;48.510;8.872;2023-02-28T04:04:37;4.45;;;3.35;;
16310;SDS011;8264;48.510;8.872;2023-02-28T04:07:05;5.00;;;2.90;;
16310;SDS011;8264;48.510;8.872;2023-02-28T04:09:34;5.63;;;3.83;;
16310;SDS011;8264;48.510;8.872;2023-02-28T04:12:01;3.97;;;2.78;;
16310;SDS011;8264;48.510;8.872;2023-02-28T04:14:28;6.07;;;3.10;;
16310;SDS011;8264;48.510;8.872;2023-02-28T04:16:55;4.40;;;3.20;;
16310;SDS011;8264;48.510;8.872;2023-02-28T04:19:21;4.78;;;3.50;;
16310;SDS011;8264;48.510;8.872;2023-02-28T04:21:48;4.60;;;3.58;;
16310;SDS011;8264;48.510;8.872;2023-02-28T04:24:16;4.25;;;3.35;;
16310;SDS011;8264;48.510;8.872;2023-02-28T04:26:45;4.43;;;3.50;;
16310;SDS011;8264;48.510;8.872;2023-02-28T04:29:13;5.57;;;3.42;;
16310;SDS011;8264;48.510;8.872;2023-02-28T04:31:42;4.80;;;3.22;;
16310;SDS011;8264;48.510;8.872;2023-02-28T04:34:08;5.45;;;3.58;;
16310;SDS011;8264;48.510;8.872;2023-02-28T04:36:35;6.20;;;3.42;;
16310;SDS011;8264;48.510;8.872;2023-02-28T04:39:02;6.20;;;3.90;;
16310;SDS011;8264;48.510;8.872;2023-02-28T04:41:29;5.72;;;3.83;;
16310;SDS011;8264;48.510;8.872;2023-02-28T04:43:55;6.20;;;3.60;;
16310;SDS011;8264;48.510;8.872;2023-02-28T04:46:22;4.50;;;3.70;;
16310;SDS011;8264;48.510;8.872;2023-02-28T04:48:50;5.43;;;3.47;;
16310;SDS011;8264;48.510;8.872;2023-02-28T04:51:17;5.47;;;3.60;;
16310;SDS011;8264;48.510;8.872;2023-02-28T04:53:44;5.72;;;3.38;;
16310;SDS011;8264;48.510;8.872;2023-02-28T04:56:11;5.60;;;4.10;;
16310;SDS011;8264;48.510;8.872;2023-02-28T04:58:38;5.55;;;4.38;;
16310;SDS011;8264;48.510;8.872;2023-02-28T05:01:06;7.07;;;3.90;;
16310;SDS011;8264;48.510;8.872;2023-02-28T05:03:40;5.28;;;3.67;;
16310;SDS011;8264;48.510;8.872;2023-02-28T05:06:08;5.10;;;4.15;;
16310;SDS011;8264;48.510;8.872;2023-02-28T05:08:34;5.22;;;3.97;;
16310;SDS011;8264;48.510;8.872;2023-02-28T05:11:01;7.10;;;4.40;;
16310;SDS011;8264;48.510;8.872;2023-02-28T05:13:28;5.75;;;4.13;;
16310;SDS011;8264;48.510;8.872;2023-02-28T05:15:55;6.93;;;4.63;;
16310;SDS011;8264;48.510;8.872;2023-02-28T05:18:22;5.55;;;4.30;;
16310;SDS011;8264;48.510;8.872;2023-02-28T05:20:48;6.78;;;4.30;;
16310;SDS011;8264;48.510;8.872;2023-02-28T05:23:16;6.25;;;3.85;;
16310;SDS011;8264;48.510;8.872;2023-02-28T05:25:43;6.10;;;3.58;;
16310;SDS011;8264;48.510;8.872;2023-02-28T05:28:10;6.95;;;4.70;;
16310;SDS011;8264;48.510;8.872;2023-02-28T05:30:36;9.80;;;4.93;;
16310;SDS011;8264;48.510;8.872;2023-02-28T05:33:03;5.30;;;4.10;;
16310;SDS011;8264;48.510;8.872;2023-02-28T05:35:29;6.32;;;4.65;;
16310;SDS011;8264;48.510;8.872;2023-02-28T05:37:56;6.68;;;4.50;;
16310;SDS011;8264;48.510;8.872;2023-02-28T05:40:23;5.63;;;3.90;;
16310;SDS011;8264;48.510;8.872;2023-02-28T05:42:50;8.43;;;5.00;;
16310;SDS011;8264;48.510;8.872;2023-02-28T05:45:16;6.35;;;3.92;;
16310;SDS011;8264;48.510;8.872;2023-02-28T05:47:43;6.55;;;4.50;;
16310;SDS011;8264;48.510;8.872;2023-02-28T05:50:09;8.05;;;3.50;;
16310;SDS011;8264;48.510;8.872;2023-02-28T05:52:36;7.03;;;4.85;;
16310;SDS011;8264;48.510;8.872;2023-02-28T05:55:03;6.30;;;4.53;;
16310;SDS011;8264;48.510;8.872;2023-02-28T05:57:31;6.60;;;4.88;;
16310;SDS011;8264;48.510;8.872;2023-02-28T05:59:58;7.47;;;5.13;;
16310;SDS011;8264;48.510;8.872;2023-02-28T06:02:24;6.28;;;4.35;;
16310;SDS011;8264;48.510;8.872;2023-02-28T06:04:51;6.63;;;4.03;;
16310;SDS011;8264;48.510;8.872;2023-02-28T06:07:17;7.88;;;4.82;;
16310;SDS011;8264;48.510;8.872;2023-02-28T06:09:44;5.90;;;4.30;;
16310;SDS011;8264;48.510;8.872;2023-02-28T06:12:10;5.30;;;3.85;;
16310;SDS011;8264;48.510;8.872;2023-02-28T06:14:38;9.07;;;4.97;;
16310;SDS011;8264;48.510;8.872;2023-02-28T06:17:06;7.65;;;5.32;;
16310;SDS011;8264;48.510;8.872;2023-02-28T06:19:32;7.93;;;5.40;;
16310;SDS011;8264;48.510;8.872;2023-02-28T06:21:59;8.27;;;5.82;;
16310;SDS011;8264;48.510;8.872;2023-02-28T06:24:25;6.35;;;5.03;;
16310;SDS011;8264;48.510;8.872;2023-02-28T06:26:53;6.75;;;4.88;;
16310;SDS011;8264;48.510;8.872;2023-02-28T06:29:20;7.90;;;5.93;;
16310;SDS011;8264;48.510;8.872;2023-02-28T06:31:48;6.20;;;4.43;;
16310;SDS011;8264;48.510;8.872;2023-02-28T06:34:14;15.60;;;8.95;;
16310;SDS011;8264;48.510;8.872;2023-02-28T06:36:41;10.23;;;7.00;;
16310;SDS011;8264;48.510;8.872;2023-02-28T06:39:08;7.10;;;4.55;;
16310;SDS011;8264;48.510;8.872;2023-02-28T06:41:35;7.28;;;5.68;;
16310;SDS011;8264;48.510;8.872;2023-02-28T06:44:03;13.52;;;6.45;;
16310;SDS011;8264;48.510;8.872;2023-02-28T06:46:30;9.00;;;5.78;;
16310;SDS011;8264;48.510;8.872;2023-02-28T06:48:59;7.35;;;5.32;;
16310;SDS011;8264;48.510;8.872;2023-02-28T06:51:25;8.70;;;5.65;;
16310;SDS011;8264;48.510;8.872;2023-02-28T06:53:52;7.60;;;6.20;;
16310;SDS011;8264;48.510;8.872;2023-02-28T06:56:18;7.63;;;5.85;;
16310;SDS011;8264;48.510;8.872;2023-02-28T06:58:46;10.45;;;5.70;;
16310;SDS011;8264;48.510;8.872;2023-02-28T07:01:13;8.45;;;5.25;;
16310;SDS011;8264;48.510;8.872;2023-02-28T07:03:39;8.50;;;5.47;;
16310;SDS011;8264;48.510;8.872;2023-02-28T07:06:07;7.85;;;5.82;;
16310;SDS011;8264;48.510;8.872;2023-02-28T07:08:34;8.48;;;6.20;;
16310;SDS011;8264;48.510;8.872;2023-02-28T07:11:01;7.45;;;5.18;;
16310;SDS011;8264;48.510;8.872;2023-02-28T07:13:28;9.63;;;6.15;;
16310;SDS011;8264;48.510;8.872;2023-02-28T07:15:55;8.95;;;6.28;;
16310;SDS011;8264;48.510;8.872;2023-02-28T07:18:22;7.13;;;5.35;;
16310;SDS011;8264;48.510;8.872;2023-02-28T07:20:48;9.48;;;5.63;;
16310;SDS011;8264;48.510;8.872;2023-02-28T07:23:16;12.85;;;6.60;;
16310;SDS011;8264;48.510;8.872;2023-02-28T07:25:43;7.22;;;4.65;;
16310;SDS011;8264;48.510;8.872;2023-02-28T07:28:10;8.18;;;5.75;;
16310;SDS011;8264;48.510;8.872;2023-02-28T07:30:37;8.02;;;5.60;;
16310;SDS011;8264;48.510;8.872;2023-02-28T07:33:03;9.00;;;6.07;;
16310;SDS011;8264;48.510;8.872;2023-02-28T07:35:30;7.68;;;5.65;;
16310;SDS011;8264;48.510;8.872;2023-02-28T07:37:56;8.90;;;6.30;;
16310;SDS011;8264;48.510;8.872;2023-02-28T07:40:25;8.20;;;6.15;;
16310;SDS011;8264;48.510;8.872;2023-02-28T07:42:51;8.10;;;6.07;;
16310;SDS011;8264;48.510;8.872;2023-02-28T07:45:18;9.73;;;6.45;;
16310;SDS011;8264;48.510;8.872;2023-02-28T07:47:45;9.23;;;6.25;;
16310;SDS011;8264;48.510;8.872;2023-02-28T07:50:13;11.77;;;6.50;;
16310;SDS011;8264;48.510;8.872;2023-02-28T07:52:40;9.70;;;5.97;;
16310;SDS011;8264;48.510;8.872;2023-02-28T07:55:07;9.02;;;6.80;;
16310;SDS011;8264;48.510;8.872;2023-02-28T07:57:36;10.05;;;6.03;;
16310;SDS011;8264;48.510;8.872;2023-02-28T08:00:04;12.05;;;6.60;;
16310;SDS011;8264;48.510;8.872;2023-02-28T08:02:31;8.68;;;6.60;;
16310;SDS011;8264;48.510;8.872;2023-02-28T08:04:58;8.30;;;6.50;;
16310;SDS011;8264;48.510;8.872;2023-02-28T08:07:25;8.32;;;6.30;;
16310;SDS011;8264;48.510;8.872;2023-02-28T08:09:52;11.13;;;6.90;;
16310;SDS011;8264;48.510;8.872;2023-02-28T08:12:18;10.32;;;5.22;;
16310;SDS011;8264;48.510;8.872;2023-02-28T08:14:46;9.70;;;6.32;;
16310;SDS011;8264;48.510;8.872;2023-02-28T08:17:13;9.10;;;6.28;;
16310;SDS011;8264;48.510;8.872;2023-02-28T08:19:39;9.20;;;6.80;;
16310;SDS011;8264;48.510;8.872;2023-02-28T08:22:06;8.68;;;6.00;;
16310;SDS011;8264;48.510;8.872;2023-02-28T08:24:32;13.43;;;7.18;;
16310;SDS011;8264;48.510;8.872;2023-02-28T08:26:59;8.50;;;7.05;;
16310;SDS011;8264;48.510;8.872;2023-02-28T08:29:25;10.55;;;7.43;;
16310;SDS011;8264;48.510;8.872;2023-02-28T08:31:53;8.88;;;6.82;;
16310;SDS011;8264;48.510;8.872;2023-02-28T08:34:20;10.02;;;6.35;;
16310;SDS011;8264;48.510;8.872;2023-02-28T08:36:46;10.10;;;6.78;;
16310;SDS011;8264;48.510;8.872;2023-02-28T08:39:12;12.63;;;7.72;;
16310;SDS011;8264;48.510;8.872;2023-02-28T08:41:39;10.45;;;7.35;;
16310;SDS011;8264;48.510;8.872;2023-02-28T08:44:06;9.68;;;6.78;;
16310;SDS011;8264;48.510;8.872;2023-02-28T08:46:32;9.80;;;7.45;;
16310;SDS011;8264;48.510;8.872;2023-02-28T08:49:00;9.77;;;7.35;;
16310;SDS011;8264;48.510;8.872;2023-02-28T08:51:27;10.95;;;7.80;;
16310;SDS011;8264;48.510;8.872;2023-02-28T08:53:54;11.55;;;7.30;;
16310;SDS011;8264;48.510;8.872;2023-02-28T08:56:21;10.52;;;7.63;;
16310;SDS011;8264;48.510;8.872;2023-02-28T08:58:49;11.68;;;7.68;;
16310;SDS011;8264;48.510;8.872;2023-02-28T09:01:16;9.75;;;6.97;;
16310;SDS011;8264;48.510;8.872;2023-02-28T09:03:44;9.85;;;7.00;;
16310;SDS011;8264;48.510;8.872;2023-02-28T09:06:14;9.98;;;6.40;;
16310;SDS011;8264;48.510;8.872;2023-02-28T09:08:41;9.80;;;7.60;;
16310;SDS011;8264;48.510;8.872;2023-02-28T09:11:08;11.88;;;6.72;;
16310;SDS011;8264;48.510;8.872;2023-02-28T09:13:35;9.25;;;6.97;;
16310;SDS011;8264;48.510;8.872;2023-02-28T09:16:03;13.27;;;9.23;;
16310;SDS011;8264;48.510;8.872;2023-02-28T09:18:30;10.48;;;7.70;;
16310;SDS011;8264;48.510;8.872;2023-02-28T09:20:56;14.02;;;8.02;;
16310;SDS011;8264;48.510;8.872;2023-02-28T09:23:25;9.07;;;6.80;;
16310;SDS011;8264;48.510;8.872;2023-02-28T09:25:52;11.88;;;7.78;;
16310;SDS011;8264;48.510;8.872;2023-02-28T09:28:20;13.15;;;7.88;;
16310;SDS011;8264;48.510;8.872;2023-02-28T09:30:48;10.07;;;7.57;;
16310;SDS011;8264;48.510;8.872;2023-02-28T09:33:17;15.90;;;8.98;;
16310;SDS011;8264;48.510;8.872;2023-02-28T09:35:45;11.10;;;8.20;;
16310;SDS011;8264;48.510;8.872;2023-02-28T09:38:12;13.30;;;8.65;;
16310;SDS011;8264;48.510;8.872;2023-02-28T09:40:41;13.98;;;8.02;;
16310;SDS011;8264;48.510;8.872;2023-02-28T09:43:14;13.77;;;8.70;;
16310;SDS011;8264;48.510;8.872;2023-02-28T09:45:42;11.88;;;8.18;;
16310;SDS011;8264;48.510;8.872;2023-02-28T09:48:14;10.57;;;8.45;;
16310;SDS011;8264;48.510;8.872;2023-02-28T09:50:45;10.73;;;7.88;;
16310;SDS011;8264;48.510;8.872;2023-02-28T09:53:13;9.52;;;7.90;;
16310;SDS011;8264;48.510;8.872;2023-02-28T09:55:45;9.25;;;7.78;;
16310;SDS011;8264;48.510;8.872;2023-02-28T09:58:15;12.60;;;8.30;;
16310;SDS011;8264;48.510;8.872;2023-02-28T10:00:45;13.52;;;8.45;;
16310;SDS011;8264;48.510;8.872;2023-02-28T10:03:24;12.10;;;8.25;;
16310;SDS011;8264;48.510;8.872;2023-02-28T10:05:52;13.23;;;8.02;;
16310;SDS011;8264;48.510;8.872;2023-02-28T10:08:22;11.07;;;8.50;;
16310;SDS011;8264;48.510;8.872;2023-02-28T10:10:53;10.68;;;7.80;;
16310;SDS011;8264;48.510;8.872;2023-02-28T10:13:23;10.50;;;7.70;;
16310;SDS011;8264;48.510;8.872;2023-02-28T10:15:52;10.40;;;7.20;;
16310;SDS011;8264;48.510;8.872;2023-02-28T10:18:22;13.90;;;7.77;;
16310;SDS011;8264;48.510;8.872;2023-02-28T10:20:51;9.20;;;6.80;;
16310;SDS011;8264;48.510;8.872;2023-02-28T10:23:21;15.73;;;11.07;;
16310;SDS011;8264;48.510;8.872;2023-02-28T10:25:50;15.03;;;10.83;;
16310;SDS011;8264;48.510;8.872;2023-02-28T10:28:21;12.73;;;8.13;;
16310;SDS011;8264;48.510;8.872;2023-02-28T10:30:48;9.38;;;7.82;;
16310;SDS011;8264;48.510;8.872;2023-02-28T10:33:21;11.87;;;8.20;;
16310;SDS011;8264;48.510;8.872;2023-02-28T10:35:49;12.20;;;7.47;;
16310;SDS011;8264;48.510;8.872;2023-02-28T10:38:18;13.17;;;8.30;;
16310;SDS011;8264;48.510;8.872;2023-02-28T10:40:46;10.90;;;8.40;;
16310;SDS011;8264;48.510;8.872;2023-02-28T10:43:21;12.57;;;8.40;;
16310;SDS011;8264;48.510;8.872;2023-02-28T10:45:52;12.93;;;8.13;;
16310;SDS011;8264;48.510;8.872;2023-02-28T10:48:27;12.90;;;7.72;;
16310;SDS011;8264;48.510;8.872;2023-02-28T10:50:57;12.97;;;7.50;;
16310;SDS011;8264;48.510;8.872;2023-02-28T10:53:34;9.60;;;7.87;;
16310;SDS011;8264;48.510;8.872;2023-02-28T10:56:04;11.87;;;7.60;;
16310;SDS011;8264;48.510;8.872;2023-02-28T10:58:42;11.90;;;8.37;;
16310;SDS011;8264;48.510;8.872;2023-02-28T11:01:13;11.17;;;7.30;;
16310;SDS011;8264;48.510;8.872;2023-02-28T11:03:40;10.47;;;7.63;;
16310;SDS011;8264;48.510;8.872;2023-02-28T11:06:07;11.47;;;7.70;;
16310;SDS011;8264;48.510;8.872;2023-02-28T11:08:43;10.57;;;8.33;;
16310;SDS011;8264;48.510;8.872;2023-02-28T11:11:10;16.10;;;8.20;;
16310;SDS011;8264;48.510;8.872;2023-02-28T11:13:39;9.33;;;6.97;;
16310;SDS011;8264;48.510;8.872;2023-02-28T11:16:07;9.23;;;7.63;;
16310;SDS011;8264;48.510;8.872;2023-02-28T11:18:37;11.13;;;7.60;;
16310;SDS011;8264;48.510;8.872;2023-02-28T11:21:06;10.80;;;7.27;;
16310;SDS011;8264;48.510;8.872;2023-02-28T11:23:34;10.33;;;7.23;;
16310;SDS011;8264;48.510;8.872;2023-02-28T11:26:02;11.90;;;7.67;;
16310;SDS011;8264;48.510;8.872;2023-02-28T11:28:35;9.50;;;7.40;;
16310;SDS011;8264;48.510;8.872;2023-02-28T11:31:06;11.70;;;7.77;;
16310;SDS011;8264;48.510;8.872;2023-02-28T11:33:41;12.43;;;7.60;;
16310;SDS011;8264;48.510;8.872;2023-02-28T11:36:11;9.63;;;6.70;;
16310;SDS011;8264;48.510;8.872;2023-02-28T11:38:39;8.67;;;7.00;;
16310;SDS011;8264;48.510;8.872;2023-02-28T11:41:08;10.97;;;8.27;;
16310;SDS011;8264;48.510;8.872;2023-02-28T11:43:46;10.17;;;6.97;;
16310;SDS011;8264;48.510;8.872;2023-02-28T11:46:24;11.77;;;7.87;;
16310;SDS011;8264;48.510;8.872;2023-02-28T11:48:57;8.03;;;6.93;;
16310;SDS011;8264;48.510;8.872;2023-02-28T11:51:27;9.90;;;7.27;;
16310;SDS011;8264;48.510;8.872;2023-02-28T11:53:58;9.57;;;7.37;;
16310;SDS011;8264;48.510;8.872;2023-02-28T11:56:42;10.13;;;8.17;;
16310;SDS011;8264;48.510;8.872;2023-02-28T11:59:18;11.53;;;8.30;;
16310;SDS011;8264;48.510;8.872;2023-02-28T12:02:06;12.13;;;8.00;;
16310;SDS011;8264;48.510;8.872;2023-02-28T12:04:47;10.07;;;7.07;;
16310;SDS011;8264;48.510;8.872;2023-02-28T12:07:21;11.50;;;8.10;;
16310;SDS011;8264;48.510;8.872;2023-02-28T12:09:56;10.57;;;7.40;;
16310;SDS011;8264;48.510;8.872;2023-02-28T12:12:32;10.70;;;7.90;;
16310;SDS011;8264;48.510;8.872;2023-02-28T12:15:11;13.43;;;7.23;;
16310;SDS011;8264;48.510;8.872;2023-02-28T12:17:57;10.37;;;6.73;;
16310;SDS011;8264;48.510;8.872;2023-02-28T12:20:30;10.60;;;7.60;;
16310;SDS011;8264;48.510;8.872;2023-02-28T12:23:04;9.20;;;7.43;;
16310;SDS011;8264;48.510;8.872;2023-02-28T12:25:46;11.63;;;7.63;;
16310;SDS011;8264;48.510;8.872;2023-02-28T12:28:23;10.63;;;6.43;;
16310;SDS011;8264;48.510;8.872;2023-02-28T12:30:53;12.20;;;7.77;;
16310;SDS011;8264;48.510;8.872;2023-02-28T12:33:24;10.53;;;7.23;;
16310;SDS011;8264;48.510;8.872;2023-02-28T12:35:54;13.67;;;8.10;;
16310;SDS011;8264;48.510;8.872;2023-02-28T12:38:22;10.80;;;8.53;;
16310;SDS011;8264;48.510;8.872;2023-02-28T12:40:52;12.40;;;9.03;;
16310;SDS011;8264;48.510;8.872;2023-02-28T12:43:21;10.30;;;7.90;;
16310;SDS011;8264;48.510;8.872;2023-02-28T12:45:50;11.83;;;8.97;;
16310;SDS011;8264;48.510;8.872;2023-02-28T12:48:20;12.03;;;8.13;;
16310;SDS011;8264;48.510;8.872;2023-02-28T12:50:52;10.60;;;8.70;;
16310;SDS011;8264;48.510;8.872;2023-02-28T12:53:21;12.67;;;7.93;;
16310;SDS011;8264;48.510;8.872;2023-02-28T12:55:53;11.50;;;8.40;;
16310;SDS011;8264;48.510;8.872;2023-02-28T12:58:26;10.80;;;7.87;;
16310;SDS011;8264;48.510;8.872;2023-02-28T13:01:11;9.30;;;7.60;;
16310;SDS011;8264;48.510;8.872;2023-02-28T13:03:49;12.03;;;7.90;;
16310;SDS011;8264;48.510;8.872;2023-02-28T13:06:34;10.23;;;7.93;;
16310;SDS011;8264;48.510;8.872;2023-02-28T13:09:09;12.00;;;8.17;;
16310;SDS011;8264;48.510;8.872;2023-02-28T13:11:42;10.93;;;8.07;;
16310;SDS011;8264;48.510;8.872;2023-02-28T13:14:23;11.20;;;8.17;;
16310;SDS011;8264;48.510;8.872;2023-02-28T13:16:54;10.17;;;7.47;;
16310;SDS011;8264;48.510;8.872;2023-02-28T13:19:30;9.90;;;7.70;;
16310;SDS011;8264;48.510;8.872;2023-02-28T13:21:58;10.83;;;7.97;;
16310;SDS011;8264;48.510;8.872;2023-02-28T13:24:42;9.87;;;7.33;;
16310;SDS011;8264;48.510;8.872;2023-02-28T13:30:02;10.73;;;8.07;;
16310;SDS011;8264;48.510;8.872;2023-02-28T13:33:22;11.97;;;8.03;;
16310;SDS011;8264;48.510;8.872;2023-02-28T13:36:06;11.57;;;7.87;;
16310;SDS011;8264;48.510;8.872;2023-02-28T13:38:39;9.20;;;7.33;;
16310;SDS011;8264;48.510;8.872;2023-02-28T13:44:09;11.47;;;7.90;;
16310;SDS011;8264;48.510;8.872;2023-02-28T13:46:38;10.47;;;7.43;;
16310;SDS011;8264;48.510;8.872;2023-02-28T13:52:44;9.83;;;7.60;;
16310;SDS011;8264;48.510;8.872;2023-02-28T13:55:19;8.27;;;6.87;;
16310;SDS011;8264;48.510;8.872;2023-02-28T13:57:57;12.20;;;7.60;;
16310;SDS011;8264;48.510;8.872;2023-02-28T14:00:35;7.97;;;6.67;;
16310;SDS011;8264;48.510;8.872;2023-02-28T14:03:10;10.67;;;7.40;;
16310;SDS011;8264;48.510;8.872;2023-02-28T14:05:45;9.27;;;6.97;;
16310;SDS011;8264;48.510;8.872;2023-02-28T14:08:14;9.25;;;7.90;;
16310;SDS011;8264;48.510;8.872;2023-02-28T14:10:44;8.77;;;7.50;;
16310;SDS011;8264;48.510;8.872;2023-02-28T14:16:11;10.70;;;7.47;;
16310;SDS011;8264;48.510;8.872;2023-02-28T14:18:40;9.37;;;7.10;;
16310;SDS011;8264;48.510;8.872;2023-02-28T14:21:09;8.77;;;7.07;;
16310;SDS011;8264;48.510;8.872;2023-02-28T14:29:51;10.60;;;7.83;;
16310;SDS011;8264;48.510;8.872;2023-02-28T14:32:41;9.63;;;7.67;;
16310;SDS011;8264;48.510;8.872;2023-02-28T14:35:18;10.87;;;7.70;;
16310;SDS011;8264;48.510;8.872;2023-02-28T14:37:48;10.57;;;7.60;;
16310;SDS011;8264;48.510;8.872;2023-02-28T14:40:16;11.13;;;8.53;;
16310;SDS011;8264;48.510;8.872;2023-02-28T14:42:55;8.83;;;7.60;;
16310;SDS011;8264;48.510;8.872;2023-02-28T14:45:23;11.40;;;7.87;;
16310;SDS011;8264;48.510;8.872;2023-02-28T14:47:55;9.97;;;7.50;;
16310;SDS011;8264;48.510;8.872;2023-02-28T14:50:23;10.53;;;7.73;;
16310;SDS011;8264;48.510;8.872;2023-02-28T14:52:51;9.50;;;7.67;;
16310;SDS011;8264;48.510;8.872;2023-02-28T14:55:18;10.43;;;7.73;;
16310;SDS011;8264;48.510;8.872;2023-02-28T14:57:54;10.97;;;7.83;;
16310;SDS011;8264;48.510;8.872;2023-02-28T15:00:23;10.23;;;7.50;;
16310;SDS011;8264;48.510;8.872;2023-02-28T15:02:51;10.70;;;7.27;;
16310;SDS011;8264;48.510;8.872;2023-02-28T15:05:25;14.13;;;7.40;;
16310;SDS011;8264;48.510;8.872;2023-02-28T15:10:38;9.43;;;6.77;;
16310;SDS011;8264;48.510;8.872;2023-02-28T15:13:09;10.73;;;7.90;;
16310;SDS011;8264;48.510;8.872;2023-02-28T15:15:40;9.77;;;7.67;;
16310;SDS011;8264;48.510;8.872;2023-02-28T15:18:10;10.40;;;7.20;;
16310;SDS011;8264;48.510;8.872;2023-02-28T15:20:42;9.23;;;6.63;;
16310;SDS011;8264;48.510;8.872;2023-02-28T15:23:09;10.33;;;7.77;;
16310;SDS011;8264;48.510;8.872;2023-02-28T15:25:36;9.13;;;7.30;;
16310;SDS011;8264;48.510;8.872;2023-02-28T15:28:02;10.17;;;7.67;;
16310;SDS011;8264;48.510;8.872;2023-02-28T15:30:31;11.47;;;7.13;;
16310;SDS011;8264;48.510;8.872;2023-02-28T15:33:02;11.97;;;7.73;;
16310;SDS011;8264;48.510;8.872;2023-02-28T15:35:33;11.10;;;7.50;;